sensor_id;sensor_type;location;lat;lon;timestamp;pressure;altitude;pressure_sealevel;temperature;humidity
77776;BME280;66965;43.328;6.668;2023-03-01T00:00:14;101375.84;;;8.81;56.22
77776;BME280;66965;43.328;6.668;2023-03-01T00:02:40;101369.75;;;8.79;56.41
77776;BME280;66965;43.328;6.668;2023-03-01T00:05:05;101366.34;;;8.65;56.13
77776;BME280;66965;43.328;6.668;2023-03-01T00:07:32;101352.38;;;8.68;56.55
77776;BME280;66965;43.328;6.668;2023-03-01T00:09:58;101362.00;;;8.55;57.03
77776;BME280;66965;43.328;6.668;2023-03-01T00:12:23;101362.88;;;8.63;56.24
77776;BME280;66965;43.328;6.668;2023-03-01T00:14:48;101366.25;;;8.85;55.30
77776;BME280;66965;43.328;6.668;2023-03-01T00:17:14;101364.47;;;8.90;55.09
77776;BME280;66965;43.328;6.668;2023-03-01T00:19:39;101361.84;;;8.85;54.65
77776;BME280;66965;43.328;6.668;2023-03-01T00:22:05;101362.75;;;8.84;54.99
77776;BME280;66965;43.328;6.668;2023-03-01T00:24:31;101358.41;;;8.83;54.64
77776;BME280;66965;43.328;6.668;2023-03-01T00:26:56;101346.22;;;8.82;54.76
77776;BME280;66965;43.328;6.668;2023-03-01T00:29:25;101354.09;;;8.76;54.34
77776;BME280;66965;43.328;6.668;2023-03-01T00:31:50;101353.19;;;8.77;54.18
77776;BME280;66965;43.328;6.668;2023-03-01T00:34:16;101354.09;;;8.76;54.11
77776;BME280;66965;43.328;6.668;2023-03-01T00:36:41;101352.34;;;8.75;55.06
77776;BME280;66965;43.328;6.668;2023-03-01T00:39:11;101347.13;;;8.72;54.62
77776;BME280;66965;43.328;6.668;2023-03-01T00:41:37;101356.72;;;8.76;54.75
77776;BME280;66965;43.328;6.668;2023-03-01T00:44:03;101354.09;;;8.72;54.65
77776;BME280;66965;43.328;6.668;2023-03-01T00:46:28;101345.34;;;8.80;54.79
77776;BME280;66965;43.328;6.668;2023-03-01T00:48:55;101347.13;;;8.77;54.80
77776;BME280;66965;43.328;6.668;2023-03-01T00:51:24;101337.44;;;8.88;53.75
77776;BME280;66965;43.328;6.668;2023-03-01T00:53:52;101333.91;;;8.97;53.65
77776;BME280;66965;43.328;6.668;2023-03-01T00:56:18;101332.97;;;9.10;53.71
77776;BME280;66965;43.328;6.668;2023-03-01T00:58:44;101329.56;;;8.96;53.45
77776;BME280;66965;43.328;6.668;2023-03-01T01:01:18;101329.50;;;9.06;54.02
77776;BME280;66965;43.328;6.668;2023-03-01T01:03:53;101319.06;;;9.00;54.79
77776;BME280;66965;43.328;6.668;2023-03-01T01:06:27;101319.22;;;8.82;54.13
77776;BME280;66965;43.328;6.668;2023-03-01T01:08:53;101320.00;;;8.93;54.02
77776;BME280;66965;43.328;6.668;2023-03-01T01:11:19;101311.38;;;8.77;53.82
77776;BME280;66965;43.328;6.668;2023-03-01T01:13:46;101300.09;;;8.72;54.18
77776;BME280;66965;43.328;6.668;2023-03-01T01:16:13;101306.31;;;8.52;54.63
77776;BME280;66965;43.328;6.668;2023-03-01T01:18:39;101299.31;;;8.57;54.88
77776;BME280;66965;43.328;6.668;2023-03-01T01:21:08;101295.91;;;8.43;55.28
77776;BME280;66965;43.328;6.668;2023-03-01T01:23:34;101291.59;;;8.34;55.80
77776;BME280;66965;43.328;6.668;2023-03-01T01:26:06;101291.59;;;8.28;56.20
77776;BME280;66965;43.328;6.668;2023-03-01T01:28:33;101283.78;;;8.32;56.06
77776;BME280;66965;43.328;6.668;2023-03-01T01:30:58;101284.66;;;8.27;56.29
77776;BME280;66965;43.328;6.668;2023-03-01T01:33:24;101289.88;;;8.21;56.49
77776;BME280;66965;43.328;6.668;2023-03-01T01:35:49;101281.22;;;8.10;56.95
77776;BME280;66965;43.328;6.668;2023-03-01T01:38:15;101275.97;;;8.19;56.18
77776;BME280;66965;43.328;6.668;2023-03-01T01:40:45;101275.06;;;8.23;56.35
77776;BME280;66965;43.328;6.668;2023-03-01T01:43:27;101267.25;;;8.21;55.86
77776;BME280;66965;43.328;6.668;2023-03-01T01:45:57;101277.69;;;8.17;56.09
77776;BME280;66965;43.328;6.668;2023-03-01T01:48:29;101269.88;;;8.12;55.94
77776;BME280;66965;43.328;6.668;2023-03-01T01:51:06;101266.47;;;8.00;56.41
77776;BME280;66965;43.328;6.668;2023-03-01T01:53:35;101263.03;;;7.86;56.45
77776;BME280;66965;43.328;6.668;2023-03-01T01:56:02;101265.63;;;7.89;56.93
77776;BME280;66965;43.328;6.668;2023-03-01T01:58:29;101256.00;;;8.04;56.01
77776;BME280;66965;43.328;6.668;2023-03-01T02:00:55;101255.16;;;7.99;55.40
77776;BME280;66965;43.328;6.668;2023-03-01T02:03:27;101253.41;;;8.00;55.41
77776;BME280;66965;43.328;6.668;2023-03-01T02:06:04;101256.84;;;8.12;56.07
77776;BME280;66965;43.328;6.668;2023-03-01T02:08:34;101256.84;;;8.12;55.85
77776;BME280;66965;43.328;6.668;2023-03-01T02:11:00;101260.34;;;8.04;56.23
77776;BME280;66965;43.328;6.668;2023-03-01T02:13:30;101246.47;;;7.97;55.34
77776;BME280;66965;43.328;6.668;2023-03-01T02:15:56;101258.56;;;8.12;55.66
77776;BME280;66965;43.328;6.668;2023-03-01T02:18:23;101264.59;;;8.33;54.71
77776;BME280;66965;43.328;6.668;2023-03-01T02:23:28;101239.34;;;8.31;54.25
77776;BME280;66965;43.328;6.668;2023-03-01T02:30:54;101232.28;;;8.54;54.62
77776;BME280;66965;43.328;6.668;2023-03-01T02:33:38;101236.59;;;8.60;54.78
77776;BME280;66965;43.328;6.668;2023-03-01T02:36:08;101228.66;;;8.73;53.93
77776;BME280;66965;43.328;6.668;2023-03-01T02:38:36;101230.34;;;8.77;54.90
77776;BME280;66965;43.328;6.668;2023-03-01T02:41:02;101225.91;;;8.90;54.77
77776;BME280;66965;43.328;6.668;2023-03-01T02:43:31;101222.50;;;8.82;55.94
77776;BME280;66965;43.328;6.668;2023-03-01T02:46:02;101213.81;;;8.77;55.74
77776;BME280;66965;43.328;6.668;2023-03-01T02:48:39;101218.16;;;8.79;56.17
77776;BME280;66965;43.328;6.668;2023-03-01T02:51:14;101214.56;;;8.92;55.80
77776;BME280;66965;43.328;6.668;2023-03-01T02:54:05;101214.53;;;8.99;54.68
77776;BME280;66965;43.328;6.668;2023-03-01T02:56:33;101211.03;;;8.97;55.01
77776;BME280;66965;43.328;6.668;2023-03-01T02:59:01;101203.31;;;8.80;56.75
77776;BME280;66965;43.328;6.668;2023-03-01T03:01:27;101206.75;;;8.86;57.32
77776;BME280;66965;43.328;6.668;2023-03-01T03:04:07;101198.19;;;8.71;56.79
77776;BME280;66965;43.328;6.668;2023-03-01T03:06:33;101201.66;;;8.70;56.92
77776;BME280;66965;43.328;6.668;2023-03-01T03:08:59;101200.03;;;8.54;56.76
77776;BME280;66965;43.328;6.668;2023-03-01T03:11:25;101202.75;;;8.40;56.50
77776;BME280;66965;43.328;6.668;2023-03-01T03:13:51;101198.44;;;8.34;56.67
77776;BME280;66965;43.328;6.668;2023-03-01T03:16:17;101194.00;;;8.46;56.90
77776;BME280;66965;43.328;6.668;2023-03-01T03:18:43;101193.97;;;8.50;56.75
77776;BME280;66965;43.328;6.668;2023-03-01T03:21:09;101190.69;;;8.12;57.51
77776;BME280;66965;43.328;6.668;2023-03-01T03:23:36;101179.59;;;7.67;59.31
77776;BME280;66965;43.328;6.668;2023-03-01T03:26:03;101179.56;;;7.81;57.82
77776;BME280;66965;43.328;6.668;2023-03-01T03:28:33;101180.38;;;7.89;56.40
77776;BME280;66965;43.328;6.668;2023-03-01T03:30:58;101181.19;;;7.99;55.88
77776;BME280;66965;43.328;6.668;2023-03-01T03:33:31;101186.38;;;8.08;56.38
77776;BME280;66965;43.328;6.668;2023-03-01T03:35:57;101183.75;;;8.14;54.41
77776;BME280;66965;43.328;6.668;2023-03-01T03:38:22;101181.13;;;8.12;55.83
77776;BME280;66965;43.328;6.668;2023-03-01T03:40:58;101189.00;;;8.02;55.88
77776;BME280;66965;43.328;6.668;2023-03-01T03:43:27;101184.72;;;7.90;55.48
77776;BME280;66965;43.328;6.668;2023-03-01T03:45:54;101188.06;;;8.12;55.88
77776;BME280;66965;43.328;6.668;2023-03-01T03:48:19;101197.63;;;8.22;56.52
77776;BME280;66965;43.328;6.668;2023-03-01T03:50:51;101197.63;;;8.22;57.41
77776;BME280;66965;43.328;6.668;2023-03-01T03:53:18;101198.59;;;7.97;56.62
77776;BME280;66965;43.328;6.668;2023-03-01T03:55:43;101191.72;;;7.84;57.06
77776;BME280;66965;43.328;6.668;2023-03-01T03:58:10;101203.06;;;7.72;58.59
77776;BME280;66965;43.328;6.668;2023-03-01T04:00:41;101190.03;;;7.67;59.85
77776;BME280;66965;43.328;6.668;2023-03-01T04:03:08;101197.06;;;7.46;59.82
77776;BME280;66965;43.328;6.668;2023-03-01T04:05:34;101196.19;;;7.44;60.63
77776;BME280;66965;43.328;6.668;2023-03-01T04:08:00;101187.53;;;7.40;59.75
77776;BME280;66965;43.328;6.668;2023-03-01T04:10:44;101193.53;;;7.63;59.52
77776;BME280;66965;43.328;6.668;2023-03-01T04:13:13;101204.84;;;7.61;59.87
77776;BME280;66965;43.328;6.668;2023-03-01T04:15:39;101196.22;;;7.33;60.43
77776;BME280;66965;43.328;6.668;2023-03-01T04:18:06;101206.63;;;7.33;61.36
77776;BME280;66965;43.328;6.668;2023-03-01T04:20:32;101215.34;;;7.29;61.02
77776;BME280;66965;43.328;6.668;2023-03-01T04:23:02;101210.13;;;7.23;61.14
77776;BME280;66965;43.328;6.668;2023-03-01T04:28:23;101208.44;;;6.87;63.17
77776;BME280;66965;43.328;6.668;2023-03-01T04:30:50;101209.28;;;6.95;64.16
77776;BME280;66965;43.328;6.668;2023-03-01T04:33:16;101214.47;;;7.16;63.57
77776;BME280;66965;43.328;6.668;2023-03-01T04:35:42;101211.88;;;7.12;64.50
77776;BME280;66965;43.328;6.668;2023-03-01T04:38:07;101211.88;;;7.12;64.72
77776;BME280;66965;43.328;6.668;2023-03-01T04:40:34;101207.53;;;7.22;65.09
77776;BME280;66965;43.328;6.668;2023-03-01T04:43:00;101205.81;;;7.14;65.42
77776;BME280;66965;43.328;6.668;2023-03-01T04:45:26;101201.47;;;7.15;66.04
77776;BME280;66965;43.328;6.668;2023-03-01T04:47:51;101210.13;;;7.23;67.04
77776;BME280;66965;43.328;6.668;2023-03-01T04:50:18;101204.88;;;7.35;67.41
77776;BME280;66965;43.328;6.668;2023-03-01T04:52:49;101207.44;;;7.61;67.17
77776;BME280;66965;43.328;6.668;2023-03-01T04:55:15;101210.91;;;7.66;67.23
77776;BME280;66965;43.328;6.668;2023-03-01T04:57:40;101215.28;;;7.59;67.69
77776;BME280;66965;43.328;6.668;2023-03-01T05:00:09;101217.91;;;7.56;67.99
77776;BME280;66965;43.328;6.668;2023-03-01T05:02:57;101224.00;;;7.46;68.69
77776;BME280;66965;43.328;6.668;2023-03-01T05:05:26;101230.09;;;7.44;68.68
77776;BME280;66965;43.328;6.668;2023-03-01T05:07:54;101232.72;;;7.35;69.48
77776;BME280;66965;43.328;6.668;2023-03-01T05:10:19;101222.28;;;7.42;69.51
77776;BME280;66965;43.328;6.668;2023-03-01T05:12:45;101231.84;;;7.45;69.79
77776;BME280;66965;43.328;6.668;2023-03-01T05:15:11;101229.22;;;7.43;69.97
77776;BME280;66965;43.328;6.668;2023-03-01T05:17:37;101229.22;;;7.45;69.96
77776;BME280;66965;43.328;6.668;2023-03-01T05:20:03;101232.66;;;7.57;70.55
77776;BME280;66965;43.328;6.668;2023-03-01T05:22:33;101232.66;;;7.51;70.49
77776;BME280;66965;43.328;6.668;2023-03-01T05:24:58;101236.16;;;7.55;70.86
77776;BME280;66965;43.328;6.668;2023-03-01T05:27:24;101244.00;;;7.53;70.39
77776;BME280;66965;43.328;6.668;2023-03-01T05:29:49;101237.88;;;7.60;71.13
77776;BME280;66965;43.328;6.668;2023-03-01T05:32:14;101242.25;;;7.54;70.88
77776;BME280;66965;43.328;6.668;2023-03-01T05:34:41;101242.25;;;7.55;71.67
77776;BME280;66965;43.328;6.668;2023-03-01T05:37:07;101239.63;;;7.52;70.78
77776;BME280;66965;43.328;6.668;2023-03-01T05:39:33;101243.09;;;7.66;71.90
77776;BME280;66965;43.328;6.668;2023-03-01T05:42:00;101238.72;;;7.68;72.13
77776;BME280;66965;43.328;6.668;2023-03-01T05:44:27;101246.59;;;7.59;71.72
77776;BME280;66965;43.328;6.668;2023-03-01T05:46:53;101245.69;;;7.57;72.64
77776;BME280;66965;43.328;6.668;2023-03-01T05:49:19;101251.78;;;7.70;72.39
77776;BME280;66965;43.328;6.668;2023-03-01T05:51:49;101247.38;;;7.76;72.91
77776;BME280;66965;43.328;6.668;2023-03-01T05:54:16;101245.66;;;7.77;73.01
77776;BME280;66965;43.328;6.668;2023-03-01T05:56:41;101251.75;;;7.81;72.42
77776;BME280;66965;43.328;6.668;2023-03-01T05:59:07;101258.75;;;7.54;72.96
77776;BME280;66965;43.328;6.668;2023-03-01T06:01:33;101265.72;;;7.45;73.89
77776;BME280;66965;43.328;6.668;2023-03-01T06:03:59;101262.22;;;7.62;73.15
77776;BME280;66965;43.328;6.668;2023-03-01T06:06:25;101272.63;;;7.68;73.01
77776;BME280;66965;43.328;6.668;2023-03-01T06:08:51;101271.78;;;7.69;72.79
77776;BME280;66965;43.328;6.668;2023-03-01T06:11:16;101271.81;;;7.50;73.12
77776;BME280;66965;43.328;6.668;2023-03-01T06:13:43;101269.22;;;7.27;73.24
77776;BME280;66965;43.328;6.668;2023-03-01T06:16:10;101278.78;;;7.31;73.40
77776;BME280;66965;43.328;6.668;2023-03-01T06:18:36;101275.31;;;7.26;74.20
77776;BME280;66965;43.328;6.668;2023-03-01T06:21:02;101270.09;;;7.25;74.38
77776;BME280;66965;43.328;6.668;2023-03-01T06:23:28;101273.56;;;7.37;73.59
77776;BME280;66965;43.328;6.668;2023-03-01T06:25:53;101264.00;;;7.36;73.66
77776;BME280;66965;43.328;6.668;2023-03-01T06:28:19;101266.63;;;7.26;71.83
77776;BME280;66965;43.328;6.668;2023-03-01T06:30:45;101269.22;;;7.10;70.55
77776;BME280;66965;43.328;6.668;2023-03-01T06:33:11;101274.41;;;7.38;70.04
77776;BME280;66965;43.328;6.668;2023-03-01T06:35:36;101273.53;;;7.52;69.04
77776;BME280;66965;43.328;6.668;2023-03-01T06:38:03;101277.84;;;7.68;69.73
77776;BME280;66965;43.328;6.668;2023-03-01T06:40:30;101279.59;;;7.72;69.60
77776;BME280;66965;43.328;6.668;2023-03-01T06:42:56;101274.25;;;8.09;70.02
77776;BME280;66965;43.328;6.668;2023-03-01T06:45:22;101269.97;;;7.97;69.24
77776;BME280;66965;43.328;6.668;2023-03-01T06:47:47;101274.28;;;7.98;69.03
77776;BME280;66965;43.328;6.668;2023-03-01T06:50:14;101282.06;;;8.12;68.53
77776;BME280;66965;43.328;6.668;2023-03-01T06:52:40;101273.31;;;8.28;69.14
77776;BME280;66965;43.328;6.668;2023-03-01T06:55:06;101275.00;;;8.44;68.73
77776;BME280;66965;43.328;6.668;2023-03-01T06:57:31;101278.41;;;8.57;69.75
77776;BME280;66965;43.328;6.668;2023-03-01T06:59:57;101284.41;;;8.69;69.35
77776;BME280;66965;43.328;6.668;2023-03-01T07:02:22;101280.88;;;8.82;68.52
77776;BME280;66965;43.328;6.668;2023-03-01T07:04:51;101272.97;;;8.93;68.58
77776;BME280;66965;43.328;6.668;2023-03-01T07:07:17;101276.34;;;9.04;68.42
77776;BME280;66965;43.328;6.668;2023-03-01T07:09:44;101272.72;;;9.19;67.72
77776;BME280;66965;43.328;6.668;2023-03-01T07:12:10;101278.78;;;9.24;66.06
77776;BME280;66965;43.328;6.668;2023-03-01T07:14:36;101269.19;;;9.27;63.66
77776;BME280;66965;43.328;6.668;2023-03-01T07:17:01;101270.84;;;9.36;63.79
77776;BME280;66965;43.328;6.668;2023-03-01T07:19:27;101274.19;;;9.48;63.57
77776;BME280;66965;43.328;6.668;2023-03-01T07:21:52;101276.78;;;9.53;65.33
77776;BME280;66965;43.328;6.668;2023-03-01T07:24:19;101280.00;;;9.79;66.08
77776;BME280;66965;43.328;6.668;2023-03-01T07:26:48;101283.41;;;9.89;65.59
77776;BME280;66965;43.328;6.668;2023-03-01T07:29:13;101280.72;;;9.93;66.02
77776;BME280;66965;43.328;6.668;2023-03-01T07:31:39;101278.66;;;10.23;66.66
77776;BME280;66965;43.328;6.668;2023-03-01T07:34:04;101282.19;;;10.22;66.22
77776;BME280;66965;43.328;6.668;2023-03-01T07:36:30;101296.84;;;10.33;65.70
77776;BME280;66965;43.328;6.668;2023-03-01T07:38:55;101298.59;;;10.34;65.79
77776;BME280;66965;43.328;6.668;2023-03-01T07:41:21;101296.19;;;10.18;64.16
77776;BME280;66965;43.328;6.668;2023-03-01T07:43:46;101296.22;;;10.15;64.09
77776;BME280;66965;43.328;6.668;2023-03-01T07:46:12;101294.47;;;10.15;64.01
77776;BME280;66965;43.328;6.668;2023-03-01T07:48:38;101301.38;;;10.19;64.18
77776;BME280;66965;43.328;6.668;2023-03-01T07:51:05;101300.16;;;10.49;63.51
77776;BME280;66965;43.328;6.668;2023-03-01T07:53:31;101299.81;;;10.73;62.73
77776;BME280;66965;43.328;6.668;2023-03-01T07:56:11;101300.94;;;10.57;63.37
77776;BME280;66965;43.328;6.668;2023-03-01T07:58:39;101302.59;;;10.62;63.06
77776;BME280;66965;43.328;6.668;2023-03-01T08:01:07;101304.19;;;10.71;63.14
77776;BME280;66965;43.328;6.668;2023-03-01T08:03:34;101297.97;;;10.81;62.84
77776;BME280;66965;43.328;6.668;2023-03-01T08:06:00;101298.72;;;10.88;62.99
77776;BME280;66965;43.328;6.668;2023-03-01T08:08:26;101301.34;;;10.88;63.10
77776;BME280;66965;43.328;6.668;2023-03-01T08:10:52;101304.94;;;10.81;62.92
77776;BME280;66965;43.328;6.668;2023-03-01T08:13:17;101306.69;;;10.80;62.77
77776;BME280;66965;43.328;6.668;2023-03-01T08:15:48;101303.03;;;10.92;61.91
77776;BME280;66965;43.328;6.668;2023-03-01T08:18:14;101301.09;;;11.04;61.73
77776;BME280;66965;43.328;6.668;2023-03-01T08:20:39;101306.53;;;10.92;62.30
77776;BME280;66965;43.328;6.668;2023-03-01T08:23:04;101297.59;;;11.05;63.09
77776;BME280;66965;43.328;6.668;2023-03-01T08:25:30;101301.03;;;11.09;62.88
77776;BME280;66965;43.328;6.668;2023-03-01T08:27:55;101293.94;;;11.14;63.19
77776;BME280;66965;43.328;6.668;2023-03-01T08:30:21;101294.78;;;11.16;63.24
77776;BME280;66965;43.328;6.668;2023-03-01T08:32:49;101299.19;;;11.14;63.64
77776;BME280;66965;43.328;6.668;2023-03-01T08:35:15;101301.81;;;11.12;63.29
77776;BME280;66965;43.328;6.668;2023-03-01T08:37:40;101300.16;;;11.08;63.29
77776;BME280;66965;43.328;6.668;2023-03-01T08:40:06;101300.28;;;11.01;64.80
77776;BME280;66965;43.328;6.668;2023-03-01T08:42:35;101289.84;;;10.98;64.18
77776;BME280;66965;43.328;6.668;2023-03-01T08:45:02;101295.78;;;11.09;63.83
77776;BME280;66965;43.328;6.668;2023-03-01T08:47:27;101284.19;;;11.22;63.60
77776;BME280;66965;43.328;6.668;2023-03-01T08:49:53;101297.44;;;11.14;61.08
77776;BME280;66965;43.328;6.668;2023-03-01T08:52:19;101289.41;;;11.23;61.55
77776;BME280;66965;43.328;6.668;2023-03-01T08:54:47;101286.69;;;11.29;60.16
77776;BME280;66965;43.328;6.668;2023-03-01T08:57:12;101291.81;;;11.37;60.59
77776;BME280;66965;43.328;6.668;2023-03-01T08:59:38;101289.63;;;11.62;63.78
77776;BME280;66965;43.328;6.668;2023-03-01T09:02:04;101287.75;;;11.70;61.87
77776;BME280;66965;43.328;6.668;2023-03-01T09:04:30;101286.88;;;11.69;61.93
77776;BME280;66965;43.328;6.668;2023-03-01T09:06:55;101276.47;;;11.63;62.04
77776;BME280;66965;43.328;6.668;2023-03-01T09:09:21;101291.31;;;11.64;61.65
77776;BME280;66965;43.328;6.668;2023-03-01T09:11:46;101277.78;;;11.38;57.95
77776;BME280;66965;43.328;6.668;2023-03-01T09:14:13;101286.69;;;11.29;55.69
77776;BME280;66965;43.328;6.668;2023-03-01T09:16:38;101281.88;;;11.54;54.89
77776;BME280;66965;43.328;6.668;2023-03-01T09:19:05;101284.13;;;11.75;53.31
77776;BME280;66965;43.328;6.668;2023-03-01T09:21:30;101275.66;;;11.60;52.63
77776;BME280;66965;43.328;6.668;2023-03-01T09:23:56;101287.28;;;11.45;51.67
77776;BME280;66965;43.328;6.668;2023-03-01T09:26:22;101285.53;;;11.46;52.95
77776;BME280;66965;43.328;6.668;2023-03-01T09:28:50;101288.84;;;11.57;52.97
77776;BME280;66965;43.328;6.668;2023-03-01T09:31:17;101281.91;;;11.53;53.41
77776;BME280;66965;43.328;6.668;2023-03-01T09:33:46;101286.44;;;11.43;52.50
77776;BME280;66965;43.328;6.668;2023-03-01T09:36:14;101293.78;;;11.24;52.28
77776;BME280;66965;43.328;6.668;2023-03-01T09:38:40;101285.63;;;11.40;51.98
77776;BME280;66965;43.328;6.668;2023-03-01T09:47:21;101285.25;;;12.08;51.01
77776;BME280;66965;43.328;6.668;2023-03-01T09:50:00;101285.88;;;12.21;50.29
77776;BME280;66965;43.328;6.668;2023-03-01T09:54:54;101287.47;;;12.28;49.28
77776;BME280;66965;43.328;6.668;2023-03-01T10:00:07;101288.66;;;12.13;49.94
77776;BME280;66965;43.328;6.668;2023-03-01T10:02:47;101281.75;;;12.08;49.90
77776;BME280;66965;43.328;6.668;2023-03-01T10:08:13;101288.25;;;12.33;50.53
77776;BME280;66965;43.328;6.668;2023-03-01T10:10:46;101296.81;;;12.42;49.38
77776;BME280;66965;43.328;6.668;2023-03-01T10:15:54;101282.81;;;12.42;51.12
77776;BME280;66965;43.328;6.668;2023-03-01T10:18:30;101274.91;;;12.42;51.14
77776;BME280;66965;43.328;6.668;2023-03-01T10:21:13;101273.16;;;12.41;50.89
77776;BME280;66965;43.328;6.668;2023-03-01T10:23:39;101283.00;;;12.73;50.63
77776;BME280;66965;43.328;6.668;2023-03-01T10:31:12;101292.00;;;13.36;50.47
77776;BME280;66965;43.328;6.668;2023-03-01T10:33:39;101295.50;;;13.38;50.89
77776;BME280;66965;43.328;6.668;2023-03-01T10:36:05;101295.44;;;13.74;51.17
77776;BME280;66965;43.328;6.668;2023-03-01T10:38:56;101297.63;;;13.56;53.17
77776;BME280;66965;43.328;6.668;2023-03-01T10:41:25;101294.50;;;13.42;55.94
77776;BME280;66965;43.328;6.668;2023-03-01T10:43:58;101296.66;;;13.25;57.89
77776;BME280;66965;43.328;6.668;2023-03-01T10:46:29;101296.56;;;13.30;60.55
77776;BME280;66965;43.328;6.668;2023-03-01T10:49:23;101297.50;;;13.62;58.90
77776;BME280;66965;43.328;6.668;2023-03-01T10:51:52;101296.97;;;14.13;56.45
77776;BME280;66965;43.328;6.668;2023-03-01T10:54:33;101301.78;;;13.99;56.26
77776;BME280;66965;43.328;6.668;2023-03-01T10:57:01;101294.50;;;13.75;58.62
77776;BME280;66965;43.328;6.668;2023-03-01T10:59:35;101300.38;;;13.86;58.20
77776;BME280;66965;43.328;6.668;2023-03-01T11:04:39;101304.47;;;13.63;60.35
77776;BME280;66965;43.328;6.668;2023-03-01T11:07:07;101301.66;;;13.37;60.69
77776;BME280;66965;43.328;6.668;2023-03-01T11:09:33;101307.78;;;13.38;61.31
77776;BME280;66965;43.328;6.668;2023-03-01T11:12:08;101306.03;;;13.37;60.30
77776;BME280;66965;43.328;6.668;2023-03-01T11:14:38;101309.81;;;13.27;60.46
77776;BME280;66965;43.328;6.668;2023-03-01T11:17:18;101303.53;;;13.32;60.46
77776;BME280;66965;43.328;6.668;2023-03-01T11:20:23;101295.75;;;13.61;59.73
77776;BME280;66965;43.328;6.668;2023-03-01T11:23:15;101287.47;;;13.77;58.14
77776;BME280;66965;43.328;6.668;2023-03-01T11:25:47;101291.50;;;13.88;58.04
77776;BME280;66965;43.328;6.668;2023-03-01T11:28:17;101289.00;;;13.84;57.44
77776;BME280;66965;43.328;6.668;2023-03-01T11:31:02;101292.50;;;13.84;58.06
77776;BME280;66965;43.328;6.668;2023-03-01T11:33:37;101287.63;;;13.71;58.67
77776;BME280;66965;43.328;6.668;2023-03-01T11:38:57;101292.22;;;13.62;59.64
77776;BME280;66965;43.328;6.668;2023-03-01T11:41:30;101291.75;;;13.47;59.24
77776;BME280;66965;43.328;6.668;2023-03-01T11:44:24;101279.19;;;13.56;58.32
77776;BME280;66965;43.328;6.668;2023-03-01T12:10:17;101271.13;;;14.25;54.54
77776;BME280;66965;43.328;6.668;2023-03-01T12:20:46;101270.09;;;14.31;54.91
77776;BME280;66965;43.328;6.668;2023-03-01T12:23:34;101264.50;;;14.12;54.04
77776;BME280;66965;43.328;6.668;2023-03-01T12:32:15;101266.28;;;14.10;52.45
77776;BME280;66965;43.328;6.668;2023-03-01T12:40:42;101265.44;;;13.79;53.62
77776;BME280;66965;43.328;6.668;2023-03-01T12:51:08;101275.66;;;13.90;57.46
77776;BME280;66965;43.328;6.668;2023-03-01T12:53:39;101272.25;;;13.86;58.44
77776;BME280;66965;43.328;6.668;2023-03-01T12:56:14;101274.59;;;13.97;57.97
77776;BME280;66965;43.328;6.668;2023-03-01T13:01:19;101274.38;;;13.74;58.34
77776;BME280;66965;43.328;6.668;2023-03-01T13:12:03;101273.56;;;12.23;66.46
77776;BME280;66965;43.328;6.668;2023-03-01T13:16:57;101282.44;;;11.74;68.51
77776;BME280;66965;43.328;6.668;2023-03-01T13:19:27;101270.91;;;11.81;68.83
77776;BME280;66965;43.328;6.668;2023-03-01T13:21:55;101274.41;;;11.82;70.17
77776;BME280;66965;43.328;6.668;2023-03-01T13:27:22;101273.69;;;11.72;70.43
77776;BME280;66965;43.328;6.668;2023-03-01T13:29:51;101269.31;;;11.73;70.97
77776;BME280;66965;43.328;6.668;2023-03-01T13:32:21;101279.28;;;11.53;70.44
77776;BME280;66965;43.328;6.668;2023-03-01T13:34:48;101278.63;;;11.42;71.33
77776;BME280;66965;43.328;6.668;2023-03-01T13:37:30;101267.81;;;11.58;71.78
77776;BME280;66965;43.328;6.668;2023-03-01T13:39:58;101267.56;;;11.73;71.89
77776;BME280;66965;43.328;6.668;2023-03-01T13:42:41;101261.75;;;11.55;71.34
77776;BME280;66965;43.328;6.668;2023-03-01T13:45:22;101272.19;;;11.58;71.38
77776;BME280;66965;43.328;6.668;2023-03-01T13:47:54;101266.28;;;11.45;71.00
77776;BME280;66965;43.328;6.668;2023-03-01T13:50:25;101272.31;;;11.52;70.64
77776;BME280;66965;43.328;6.668;2023-03-01T13:53:02;101269.38;;;11.68;70.52
77776;BME280;66965;43.328;6.668;2023-03-01T13:55:38;101275.16;;;11.87;70.29
77776;BME280;66965;43.328;6.668;2023-03-01T13:58:28;101272.69;;;11.79;70.34
77776;BME280;66965;43.328;6.668;2023-03-01T14:03:24;101274.88;;;11.53;70.72
77776;BME280;66965;43.328;6.668;2023-03-01T14:08:26;101267.97;;;11.48;69.89
77776;BME280;66965;43.328;6.668;2023-03-01T14:19:22;101265.03;;;11.66;70.23
77776;BME280;66965;43.328;6.668;2023-03-01T14:24:29;101271.72;;;11.83;70.96
77776;BME280;66965;43.328;6.668;2023-03-01T14:26:58;101271.22;;;11.63;71.00
77776;BME280;66965;43.328;6.668;2023-03-01T14:29:37;101274.06;;;11.51;71.49
77776;BME280;66965;43.328;6.668;2023-03-01T14:32:19;101276.59;;;11.56;70.62
77776;BME280;66965;43.328;6.668;2023-03-01T14:34:48;101272.09;;;11.64;70.71
77776;BME280;66965;43.328;6.668;2023-03-01T14:39:55;101272.09;;;11.64;69.45
77776;BME280;66965;43.328;6.668;2023-03-01T14:42:23;101268.66;;;11.59;67.80
77776;BME280;66965;43.328;6.668;2023-03-01T14:44:52;101274.00;;;11.54;68.42
77776;BME280;66965;43.328;6.668;2023-03-01T14:47:33;101275.47;;;11.72;69.21
77776;BME280;66965;43.328;6.668;2023-03-01T14:50:32;101276.34;;;11.71;69.36
77776;BME280;66965;43.328;6.668;2023-03-01T14:53:02;101285.38;;;11.53;69.01
77776;BME280;66965;43.328;6.668;2023-03-01T14:55:35;101279.34;;;11.50;70.08
77776;BME280;66965;43.328;6.668;2023-03-01T14:58:08;101286.44;;;11.45;70.48
77776;BME280;66965;43.328;6.668;2023-03-01T15:00:35;101279.50;;;11.41;71.01
77776;BME280;66965;43.328;6.668;2023-03-01T15:05:51;101275.44;;;11.21;71.92
77776;BME280;66965;43.328;6.668;2023-03-01T15:08:21;101281.34;;;11.34;72.59
77776;BME280;66965;43.328;6.668;2023-03-01T15:13:39;101279.09;;;11.13;72.40